createdAt,value
2022-11-25T00:02:30.091Z,99.90
2022-11-25T00:05:02.106Z,99.90
2022-11-25T00:07:36.486Z,99.90
2022-11-25T00:10:08.707Z,99.90
2022-11-25T00:12:40.642Z,99.90
2022-11-25T00:15:12.482Z,99.90
2022-11-25T00:17:44.394Z,99.90
2022-11-25T00:20:16.455Z,99.90
2022-11-25T00:22:48.517Z,99.90
2022-11-25T00:25:20.446Z,99.90
2022-11-25T00:27:53.396Z,99.90
2022-11-25T00:30:25.304Z,99.90
2022-11-25T00:32:57.184Z,99.90
2022-11-25T00:35:29.147Z,99.90
2022-11-25T00:38:01.131Z,99.90
2022-11-25T00:40:33.023Z,99.90
2022-11-25T00:43:23.374Z,99.90
2022-11-25T00:45:55.422Z,99.90
2022-11-25T00:48:27.341Z,99.90
2022-11-25T00:50:59.193Z,99.90
2022-11-25T00:53:32.197Z,99.90
2022-11-25T00:56:13.695Z,99.90
2022-11-25T00:58:45.733Z,99.90
2022-11-25T01:01:17.717Z,99.90
2022-11-25T01:03:52.619Z,99.90
2022-11-25T01:06:24.601Z,99.90
2022-11-25T01:08:56.638Z,99.90
2022-11-25T01:11:28.567Z,99.90
2022-11-25T01:14:01.823Z,99.90
2022-11-25T01:16:33.975Z,99.90
2022-11-25T01:19:06.083Z,99.90
2022-11-25T01:21:38.325Z,99.90
2022-11-25T01:24:14.271Z,99.90
2022-11-25T01:26:46.549Z,99.90
2022-11-25T01:29:19.438Z,99.90
2022-11-25T01:31:55.022Z,99.90
2022-11-25T01:34:28.483Z,99.90
2022-11-25T01:37:00.451Z,99.90
2022-11-25T01:39:33.285Z,99.90
2022-11-25T01:42:05.495Z,99.90
2022-11-25T01:44:42.639Z,99.90
2022-11-25T01:47:24.490Z,99.90
2022-11-25T01:50:06.366Z,99.90
2022-11-25T01:52:46.047Z,99.90
2022-11-25T01:55:33.176Z,99.90
2022-11-25T01:58:18.529Z,99.90
2022-11-25T02:00:55.044Z,99.90
2022-11-25T02:03:37.166Z,99.90
2022-11-25T02:06:42.453Z,99.90
2022-11-25T02:09:16.693Z,99.90
2022-11-25T02:11:51.828Z,99.90
2022-11-25T02:14:26.404Z,99.90
2022-11-25T02:17:01.735Z,99.90
2022-11-25T02:20:15.357Z,99.90
2022-11-25T02:23:10.476Z,99.90
2022-11-25T02:25:43.906Z,99.90
2022-11-25T02:28:26.847Z,99.90
2022-11-25T02:30:59.591Z,99.90
2022-11-25T02:33:32.269Z,99.90
2022-11-25T02:36:17.826Z,99.90
2022-11-25T02:38:56.669Z,99.90
2022-11-25T02:41:54.264Z,99.90
2022-11-25T02:44:26.213Z,99.90
2022-11-25T02:46:58.150Z,99.90
2022-11-25T02:49:30.020Z,99.90
2022-11-25T02:52:01.957Z,99.90
2022-11-25T02:54:34.316Z,99.90
2022-11-25T02:57:06.440Z,99.90
2022-11-25T02:59:38.320Z,99.90
2022-11-25T03:02:10.571Z,99.90
2022-11-25T03:04:42.494Z,99.90
2022-11-25T03:07:14.475Z,99.90
2022-11-25T03:09:46.814Z,99.90
2022-11-25T03:12:21.954Z,99.90
2022-11-25T03:14:53.881Z,99.90
2022-11-25T03:17:25.916Z,99.90
2022-11-25T03:19:57.914Z,99.90
2022-11-25T03:22:29.819Z,99.90
2022-11-25T03:25:01.916Z,99.90
2022-11-25T03:27:35.227Z,99.90
2022-11-25T03:30:12.725Z,99.90
2022-11-25T03:32:45.212Z,99.90
2022-11-25T03:35:17.766Z,99.90
2022-11-25T03:37:50.020Z,99.90
2022-11-25T03:40:22.161Z,99.90
2022-11-25T03:42:54.137Z,99.90
2022-11-25T03:45:26.012Z,99.90
2022-11-25T03:47:57.953Z,99.90
2022-11-25T03:50:29.852Z,99.90
2022-11-25T03:53:01.810Z,99.90
2022-11-25T03:55:33.693Z,99.90
2022-11-25T03:58:05.693Z,99.90
2022-11-25T04:00:39.606Z,99.90
2022-11-25T04:03:12.171Z,99.90
2022-11-25T04:05:44.133Z,99.90
2022-11-25T04:08:16.035Z,99.90
2022-11-25T04:10:50.519Z,99.90
2022-11-25T04:13:22.534Z,99.90
2022-11-25T04:15:54.469Z,99.90
2022-11-25T04:18:26.503Z,99.90
2022-11-25T04:20:58.586Z,99.90
2022-11-25T04:23:30.499Z,99.90
2022-11-25T04:26:02.600Z,99.90
2022-11-25T04:28:34.566Z,99.90
2022-11-25T04:31:09.018Z,99.90
2022-11-25T04:33:40.966Z,99.90
2022-11-25T04:36:13.211Z,99.90
2022-11-25T04:38:45.099Z,99.90
2022-11-25T04:41:17.080Z,99.90
2022-11-25T04:43:49.101Z,99.90
2022-11-25T04:46:29.157Z,99.90
2022-11-25T04:49:01.078Z,99.90
2022-11-25T04:51:33.197Z,99.90
2022-11-25T04:54:05.341Z,99.90
2022-11-25T04:56:37.250Z,99.90
2022-11-25T04:59:27.693Z,99.90
2022-11-25T05:01:59.651Z,99.90
2022-11-25T05:04:31.633Z,99.90
2022-11-25T05:07:03.623Z,99.90
2022-11-25T05:09:36.008Z,99.90
2022-11-25T05:12:11.831Z,99.90
2022-11-25T05:14:44.291Z,99.90
2022-11-25T05:17:27.771Z,99.90
2022-11-25T05:19:59.921Z,99.90
2022-11-25T05:22:34.342Z,99.90
2022-11-25T05:25:06.563Z,99.90
2022-11-25T05:27:38.491Z,99.90
2022-11-25T05:30:10.976Z,99.90
2022-11-25T05:32:44.242Z,99.90
2022-11-25T05:35:16.328Z,99.90
2022-11-25T05:37:48.437Z,99.90
2022-11-25T05:40:20.340Z,99.90
2022-11-25T05:42:52.219Z,99.90
2022-11-25T05:45:24.108Z,99.90
2022-11-25T05:47:55.991Z,99.90
2022-11-25T05:50:27.875Z,99.90
2022-11-25T05:52:59.799Z,99.90
2022-11-25T05:55:31.703Z,99.90
2022-11-25T05:58:06.148Z,99.90
2022-11-25T06:00:38.064Z,99.90
2022-11-25T06:03:10.065Z,99.90
2022-11-25T06:05:42.111Z,99.90
2022-11-25T06:08:14.228Z,99.90
2022-11-25T06:10:46.125Z,99.90
2022-11-25T06:13:18.690Z,99.90
2022-11-25T06:15:50.635Z,99.90
2022-11-25T06:18:22.658Z,99.90
2022-11-25T06:20:59.065Z,99.90
2022-11-25T06:23:31.638Z,99.90
2022-11-25T06:26:10.785Z,99.90
2022-11-25T06:28:43.378Z,99.90
2022-11-25T06:31:20.413Z,99.90
2022-11-25T06:33:54.163Z,99.90
2022-11-25T06:36:26.032Z,99.90
2022-11-25T06:38:57.940Z,99.90
2022-11-25T06:41:29.831Z,99.90
2022-11-25T06:44:01.745Z,99.90
2022-11-25T06:46:33.848Z,99.90
2022-11-25T06:49:05.831Z,99.90
2022-11-25T06:51:37.788Z,99.90
2022-11-25T06:54:10.373Z,99.90
2022-11-25T06:56:42.737Z,99.90
2022-11-25T06:59:14.961Z,99.90
2022-11-25T07:01:47.218Z,99.90
2022-11-25T07:04:19.201Z,99.90
2022-11-25T07:06:51.284Z,99.90
2022-11-25T07:09:24.695Z,99.90
2022-11-25T07:11:56.665Z,99.90
2022-11-25T07:14:28.898Z,99.90
2022-11-25T07:17:00.834Z,99.90
2022-11-25T07:19:35.565Z,99.90
2022-11-25T07:22:07.486Z,99.90
2022-11-25T07:24:39.360Z,99.90
2022-11-25T07:27:11.321Z,99.90
2022-11-25T07:30:29.645Z,99.90
2022-11-25T07:32:35.058Z,99.90
2022-11-25T07:35:08.053Z,99.90
2022-11-25T07:37:39.946Z,99.90
2022-11-25T07:40:12.802Z,99.90
2022-11-25T07:42:44.676Z,99.90
2022-11-25T07:45:16.697Z,99.90
2022-11-25T07:47:48.555Z,99.90
2022-11-25T07:50:21.526Z,99.90
2022-11-25T07:52:53.927Z,99.90
2022-11-25T07:55:25.909Z,99.90
2022-11-25T07:57:57.799Z,99.90
2022-11-25T08:00:29.691Z,99.90
2022-11-25T08:03:01.598Z,99.90
2022-11-25T08:05:34.298Z,99.90
2022-11-25T08:08:06.356Z,99.90
2022-11-25T08:10:41.058Z,99.90
2022-11-25T08:13:13.000Z,99.90
2022-11-25T08:15:45.133Z,99.90
2022-11-25T08:18:17.310Z,99.90
2022-11-25T08:20:49.256Z,99.90
2022-11-25T08:23:21.146Z,99.90
2022-11-25T08:25:53.278Z,99.90
2022-11-25T08:28:25.189Z,99.90
2022-11-25T08:31:17.065Z,99.90
2022-11-25T08:33:50.138Z,99.90
2022-11-25T08:36:23.579Z,99.90
2022-11-25T08:38:58.893Z,99.90
2022-11-25T08:41:35.499Z,99.90
2022-11-25T08:44:10.049Z,99.90
2022-11-25T08:46:42.718Z,99.90
2022-11-25T08:49:17.328Z,99.90
2022-11-25T08:51:49.278Z,99.90
2022-11-25T08:54:21.253Z,99.90
2022-11-25T08:56:53.191Z,99.90
2022-11-25T08:59:25.318Z,99.90
2022-11-25T09:01:57.434Z,99.90
2022-11-25T09:04:29.362Z,99.90
2022-11-25T09:07:03.563Z,99.90
2022-11-25T09:09:35.757Z,99.90
2022-11-25T09:12:08.141Z,99.90
2022-11-25T09:14:40.612Z,99.90
2022-11-25T09:17:14.035Z,99.90
2022-11-25T09:19:46.093Z,99.90
2022-11-25T09:22:18.000Z,99.90
2022-11-25T09:24:50.159Z,99.90
2022-11-25T09:27:22.049Z,99.90
2022-11-25T09:29:54.031Z,99.90
2022-11-25T09:32:25.951Z,99.90
2022-11-25T09:34:57.894Z,99.90
2022-11-25T09:37:29.825Z,99.90
2022-11-25T09:40:01.863Z,99.90
2022-11-25T09:43:30.756Z,99.90
2022-11-25T09:47:04.506Z,99.90
2022-11-25T09:50:02.630Z,99.90
2022-11-25T09:52:47.812Z,99.90
2022-11-25T09:55:26.213Z,99.90
2022-11-25T09:58:16.478Z,99.90
2022-11-25T10:00:51.533Z,99.90
2022-11-25T10:03:44.735Z,99.90
2022-11-25T10:06:19.349Z,99.90
2022-11-25T10:08:58.280Z,99.90
2022-11-25T10:11:56.932Z,99.90
2022-11-25T10:14:47.305Z,99.90
2022-11-25T10:17:44.364Z,99.90
2022-11-25T10:20:32.943Z,99.90
2022-11-25T10:23:28.351Z,99.90
2022-11-25T10:26:12.770Z,99.90
2022-11-25T10:29:17.650Z,99.90
2022-11-25T10:31:55.672Z,99.90
2022-11-25T10:34:44.509Z,99.90
2022-11-25T10:37:44.382Z,99.90
2022-11-25T10:40:17.714Z,99.90
2022-11-25T10:42:49.828Z,99.90
2022-11-25T10:45:36.752Z,99.60
2022-11-25T10:48:34.212Z,99.40
2022-11-25T10:51:36.691Z,99.20
2022-11-25T10:54:29.524Z,99.10
2022-11-25T10:57:15.836Z,99.20
2022-11-25T11:00:00.668Z,98.50
2022-11-25T11:02:35.484Z,98.10
2022-11-25T11:05:10.146Z,98.10
2022-11-25T11:07:46.859Z,97.60
2022-11-25T11:10:26.589Z,97.30
2022-11-25T11:13:03.261Z,97.30
2022-11-25T11:15:41.441Z,97.10
2022-11-25T11:18:37.657Z,96.90
2022-11-25T11:21:28.943Z,96.60
2022-11-25T11:24:03.022Z,96.40
2022-11-25T11:26:36.636Z,96.30
2022-11-25T11:29:17.179Z,96.10
2022-11-25T11:31:59.365Z,95.90
2022-11-25T11:34:36.951Z,95.80
2022-11-25T11:37:30.696Z,95.70
2022-11-25T11:40:38.803Z,95.70
2022-11-25T11:43:45.696Z,95.90
2022-11-25T11:46:58.459Z,95.70
2022-11-25T11:50:05.784Z,95.20
2022-11-25T11:53:14.537Z,95.10
2022-11-25T11:56:26.676Z,95.10
2022-11-25T11:59:17.937Z,95.10
2022-11-25T12:02:23.858Z,95.20
2022-11-25T12:05:11.078Z,94.80
2022-11-25T12:08:40.883Z,94.90
2022-11-25T12:11:25.234Z,94.90
2022-11-25T12:14:45.534Z,95.20
2022-11-25T12:17:36.683Z,95.30
2022-11-25T12:20:31.277Z,95.40
2022-11-25T12:23:37.579Z,95.20
2022-11-25T12:26:22.617Z,95.00
2022-11-25T12:29:07.350Z,95.10
2022-11-25T12:31:52.733Z,95.00
2022-11-25T12:34:44.575Z,94.80
2022-11-25T12:37:34.431Z,94.70
2022-11-25T12:40:15.214Z,94.60
2022-11-25T12:42:49.927Z,94.70
2022-11-25T12:45:26.453Z,94.90
2022-11-25T12:47:58.448Z,95.00
2022-11-25T12:51:21.531Z,94.70
2022-11-25T12:54:13.217Z,94.40
2022-11-25T12:57:26.652Z,94.70
2022-11-25T13:00:41.110Z,95.10
2022-11-25T13:03:53.481Z,95.50
2022-11-25T13:06:34.690Z,95.90
2022-11-25T13:09:59.963Z,96.50
2022-11-25T13:12:41.071Z,96.40
2022-11-25T13:15:48.641Z,96.60
2022-11-25T13:18:24.949Z,96.80
2022-11-25T13:21:06.729Z,96.90
2022-11-25T13:23:51.204Z,97.20
2022-11-25T13:26:28.986Z,97.30
2022-11-25T13:29:27.610Z,97.30
2022-11-25T13:32:05.397Z,97.00
2022-11-25T13:34:37.751Z,96.70
2022-11-25T13:37:37.266Z,96.20
2022-11-25T13:40:28.665Z,95.80
2022-11-25T13:43:00.794Z,96.00
2022-11-25T13:45:42.341Z,96.40
2022-11-25T13:48:37.033Z,96.50
2022-11-25T13:51:21.746Z,96.70
2022-11-25T13:54:06.300Z,96.80
2022-11-25T13:56:38.443Z,97.00
2022-11-25T13:59:10.340Z,97.20
2022-11-25T14:01:54.727Z,97.30
2022-11-25T14:05:15.071Z,97.50
2022-11-25T14:08:15.172Z,97.60
2022-11-25T14:10:58.591Z,97.80
2022-11-25T14:14:01.747Z,97.80
2022-11-25T14:16:39.572Z,97.80
2022-11-25T14:22:35.837Z,97.90
2022-11-25T14:25:19.894Z,98.00
2022-11-25T14:28:07.571Z,98.50
2022-11-25T14:30:59.528Z,98.20
2022-11-25T14:34:01.992Z,98.20
2022-11-25T14:36:48.802Z,98.30
2022-11-25T14:39:38.075Z,98.50
2022-11-25T14:42:17.508Z,98.60
2022-11-25T14:44:55.849Z,98.70
2022-11-25T14:47:37.408Z,98.80
2022-11-25T14:53:10.172Z,98.90
2022-11-25T14:55:48.759Z,99.00
2022-11-25T14:58:20.980Z,99.10
2022-11-25T15:01:08.703Z,99.20
2022-11-25T15:03:40.790Z,99.30
2022-11-25T15:06:14.865Z,99.40
2022-11-25T15:08:57.504Z,99.40
2022-11-25T15:11:34.901Z,99.50
2022-11-25T15:14:14.061Z,99.50
2022-11-25T15:16:46.732Z,99.60
2022-11-25T15:19:23.095Z,99.60
2022-11-25T15:25:07.821Z,99.80
2022-11-25T15:27:53.424Z,99.70
2022-11-25T15:30:31.653Z,99.80
2022-11-25T15:33:04.093Z,99.80
2022-11-25T15:35:36.019Z,99.90
2022-11-25T15:38:38.880Z,99.90
2022-11-25T15:41:35.976Z,99.90
2022-11-25T15:44:36.613Z,99.90
2022-11-25T15:47:25.322Z,99.90
2022-11-25T15:50:17.488Z,99.90
2022-11-25T15:52:55.598Z,99.90
2022-11-25T15:55:33.190Z,99.90
2022-11-25T15:58:22.729Z,99.90
2022-11-25T16:01:28.794Z,99.90
2022-11-25T16:04:21.426Z,99.90
2022-11-25T16:06:56.617Z,99.90
2022-11-25T16:09:31.444Z,99.90
2022-11-25T16:12:07.623Z,99.90
2022-11-25T16:14:39.600Z,99.90
2022-11-25T16:17:12.696Z,99.90
2022-11-25T16:19:47.598Z,99.90
2022-11-25T16:22:20.724Z,99.90
2022-11-25T16:25:01.816Z,99.90
2022-11-25T16:27:38.204Z,99.90
2022-11-25T16:30:19.719Z,99.90
2022-11-25T16:32:51.716Z,99.90
2022-11-25T16:35:23.660Z,99.90
2022-11-25T16:37:58.504Z,99.90
2022-11-25T16:40:30.535Z,99.90
2022-11-25T16:43:02.924Z,99.90
2022-11-25T16:45:35.042Z,99.90
2022-11-25T16:48:19.792Z,99.90
2022-11-25T16:50:52.223Z,99.90
2022-11-25T16:53:24.176Z,99.90
2022-11-25T16:55:56.564Z,99.90
2022-11-25T16:58:28.485Z,99.90
2022-11-25T17:01:00.514Z,99.90
2022-11-25T17:03:32.445Z,99.90
2022-11-25T17:06:21.570Z,99.90
2022-11-25T17:08:53.954Z,99.90
2022-11-25T17:11:54.878Z,99.90
2022-11-25T17:14:34.580Z,99.90
2022-11-25T17:17:06.770Z,99.90
2022-11-25T17:19:38.995Z,99.90
2022-11-25T17:22:23.614Z,99.90
2022-11-25T17:24:57.530Z,99.90
2022-11-25T17:27:32.895Z,99.90
2022-11-25T17:30:13.902Z,99.90
2022-11-25T17:32:47.017Z,99.90
2022-11-25T17:35:20.965Z,99.90
2022-11-25T17:37:52.962Z,99.90
2022-11-25T17:40:25.175Z,99.90
2022-11-25T17:42:57.467Z,99.90
2022-11-25T17:45:29.635Z,99.90
2022-11-25T17:48:01.619Z,99.90
2022-11-25T17:50:33.588Z,99.90
2022-11-25T17:53:05.923Z,99.90
2022-11-25T17:55:40.744Z,99.90
2022-11-25T17:59:41.464Z,99.90
2022-11-25T18:02:21.847Z,99.90
2022-11-25T18:04:55.227Z,99.90
2022-11-25T18:07:27.266Z,99.90
2022-11-25T18:09:59.288Z,99.90
2022-11-25T18:12:34.014Z,99.90
2022-11-25T18:15:10.614Z,99.90
2022-11-25T18:17:43.292Z,99.90
2022-11-25T18:20:23.891Z,99.90
2022-11-25T18:22:56.056Z,99.90
2022-11-25T18:25:32.072Z,99.90
2022-11-25T18:28:05.078Z,99.90
2022-11-25T18:30:39.133Z,99.90
2022-11-25T18:33:16.521Z,99.90
2022-11-25T18:35:48.677Z,99.90
2022-11-25T18:38:20.595Z,99.90
2022-11-25T18:40:54.173Z,99.90
2022-11-25T18:43:27.728Z,99.90
2022-11-25T18:46:00.241Z,99.90
2022-11-25T18:48:32.191Z,99.90
2022-11-25T18:51:04.951Z,99.90
2022-11-25T18:53:36.931Z,99.90
2022-11-25T18:56:17.917Z,99.90
2022-11-25T18:58:52.084Z,99.90
2022-11-25T19:01:24.307Z,99.90
2022-11-25T19:03:57.205Z,99.90
2022-11-25T19:06:29.292Z,99.90
2022-11-25T19:09:03.417Z,99.90
2022-11-25T19:11:40.877Z,99.90
2022-11-25T19:14:44.687Z,99.90
2022-11-25T19:17:22.034Z,99.90
2022-11-25T19:19:54.032Z,99.90
2022-11-25T19:22:25.911Z,99.90
2022-11-25T19:24:59.204Z,99.90
2022-11-25T19:27:36.601Z,99.90
2022-11-25T19:30:24.979Z,99.90
2022-11-25T19:33:01.444Z,99.90
2022-11-25T19:35:38.388Z,99.90
2022-11-25T19:38:25.285Z,99.90
2022-11-25T19:40:57.914Z,99.90
2022-11-25T19:43:29.877Z,99.90
2022-11-25T19:46:03.572Z,99.90
2022-11-25T19:48:38.995Z,99.90
2022-11-25T19:51:11.272Z,99.90
2022-11-25T19:53:43.193Z,99.90
2022-11-25T19:56:22.439Z,99.90
2022-11-25T19:58:55.113Z,99.90
2022-11-25T20:01:33.720Z,99.90
2022-11-25T20:04:07.935Z,99.90
2022-11-25T20:06:39.923Z,99.90
2022-11-25T20:09:13.214Z,99.90
2022-11-25T20:11:45.298Z,99.90
2022-11-25T20:14:17.206Z,99.90
2022-11-25T20:16:49.202Z,99.90
2022-11-25T20:19:21.337Z,99.90
2022-11-25T20:21:53.265Z,99.90
2022-11-25T20:24:27.025Z,99.90
2022-11-25T20:26:59.000Z,99.90
2022-11-25T20:29:30.915Z,99.90
2022-11-25T20:32:25.264Z,99.90
2022-11-25T20:35:00.689Z,99.90
2022-11-25T20:37:40.477Z,99.90
2022-11-25T20:40:23.233Z,99.90
2022-11-25T20:42:55.285Z,99.90
2022-11-25T20:45:27.611Z,99.90
2022-11-25T20:47:59.644Z,99.90
2022-11-25T20:50:31.641Z,99.90
2022-11-25T20:53:03.916Z,99.90
2022-11-25T20:55:35.862Z,99.90
2022-11-25T20:58:30.877Z,99.90
2022-11-25T21:01:02.997Z,99.90
2022-11-25T21:03:34.998Z,99.90
2022-11-25T21:06:21.312Z,99.90
2022-11-25T21:08:55.709Z,99.90
2022-11-25T21:11:28.220Z,99.90
2022-11-25T21:14:00.249Z,99.90
2022-11-25T21:16:32.185Z,99.90
2022-11-25T21:19:04.202Z,99.90
2022-11-25T21:21:40.436Z,99.90
2022-11-25T21:24:31.757Z,99.90
2022-11-25T21:27:14.319Z,99.90
2022-11-25T21:29:46.797Z,99.90
2022-11-25T21:32:26.077Z,99.90
2022-11-25T21:34:58.297Z,99.90
2022-11-25T21:37:37.964Z,99.90
2022-11-25T21:40:39.511Z,99.90
2022-11-25T21:43:23.954Z,99.90
2022-11-25T21:46:07.279Z,99.90
2022-11-25T21:48:40.004Z,99.90
2022-11-25T21:51:15.374Z,99.90
2022-11-25T21:53:48.343Z,99.90
2022-11-25T21:56:34.567Z,99.90
2022-11-25T21:59:14.658Z,99.90
2022-11-25T22:01:47.902Z,99.90
2022-11-25T22:04:21.188Z,99.90
2022-11-25T22:06:53.128Z,99.90
2022-11-25T22:09:26.774Z,99.90
2022-11-25T22:11:58.725Z,99.90
2022-11-25T22:14:34.690Z,99.90
2022-11-25T22:17:15.454Z,99.90
2022-11-25T22:19:47.648Z,99.90
2022-11-25T22:22:19.792Z,99.90
2022-11-25T22:24:51.832Z,99.90
2022-11-25T22:27:28.525Z,99.90
2022-11-25T22:30:00.431Z,99.90
2022-11-25T22:32:32.889Z,99.90
2022-11-25T22:35:17.857Z,99.90
2022-11-25T22:37:54.981Z,99.90
2022-11-25T22:40:27.335Z,99.90
2022-11-25T22:43:00.871Z,99.90
2022-11-25T22:45:34.636Z,99.90
2022-11-25T22:48:07.007Z,99.90
2022-11-25T22:50:39.008Z,99.90
2022-11-25T22:53:18.382Z,99.90
2022-11-25T22:55:50.541Z,99.90
2022-11-25T22:58:23.952Z,99.90
2022-11-25T23:00:57.310Z,99.90
2022-11-25T23:03:30.146Z,99.90
2022-11-25T23:06:03.283Z,99.90
2022-11-25T23:08:35.662Z,99.90
2022-11-25T23:11:21.407Z,99.90
2022-11-25T23:13:53.324Z,99.90
2022-11-25T23:16:25.392Z,99.90
2022-11-25T23:18:57.417Z,99.90
2022-11-25T23:21:29.331Z,99.90
2022-11-25T23:24:01.425Z,99.90
2022-11-25T23:26:35.137Z,99.90
2022-11-25T23:29:07.618Z,99.90
2022-11-25T23:31:40.377Z,99.90
2022-11-25T23:34:13.600Z,99.90
2022-11-25T23:36:48.693Z,99.90
2022-11-25T23:39:24.409Z,99.90
2022-11-25T23:41:56.259Z,99.90
2022-11-25T23:44:34.445Z,99.90
2022-11-25T23:47:16.851Z,99.90
2022-11-25T23:49:52.409Z,99.90
2022-11-25T23:52:27.999Z,99.90
2022-11-25T23:54:59.920Z,99.90
2022-11-25T23:57:33.539Z,99.90
